Search for airport 
image banner adimage banner adimage banner ad
image banner ad

NV17 - Youngberg Ranch

Located in Lemmon Valley, United States

ICAO - NV17, IATA -

Data provided by Airmate  

General information

Coordinates: N39°40'24" W119°48'47"
Elevation is 4960 feet MSL.
Magnetic variation is 16° East
View others Airports in Nevada

Operational data

Special qualification required
Current time UTC:
Current local time:
Weather at : KRTS - Reno/Stead ( 5 km )
METAR: KRTS 092255Z AUTO VRB06G11KT 10SM CLR 19/M09 A2998 RMK AO2
View NOTAMs / SUP AIP / TFR affecting this airport [VIEW]
Communications frequencies: [VIEW]

Runways:

RWY identifierQFULength (ft)Width (ft)SurfaceLDA (ft)
11158040EARTH
29158040EARTH

Airport contact information

Address: Lemmon Valley United States

Satellite view of NV17